sensor_id;sensor_type;location;lat;lon;timestamp;P1;durP1;ratioP1;P2;durP2;ratioP2
69594;SDS011;56800;52.142;5.364;2023-04-24T00:01:32;3.13;;;1.52;;
69594;SDS011;56800;52.142;5.364;2023-04-24T00:04:00;2.42;;;1.13;;
69594;SDS011;56800;52.142;5.364;2023-04-24T00:06:28;2.10;;;1.25;;
69594;SDS011;56800;52.142;5.364;2023-04-24T00:09:00;4.00;;;1.10;;
69594;SDS011;56800;52.142;5.364;2023-04-24T00:11:27;2.00;;;1.10;;
69594;SDS011;56800;52.142;5.364;2023-04-24T00:13:54;5.93;;;1.23;;
69594;SDS011;56800;52.142;5.364;2023-04-24T00:16:21;2.42;;;1.10;;
69594;SDS011;56800;52.142;5.364;2023-04-24T00:18:48;2.38;;;0.77;;
69594;SDS011;56800;52.142;5.364;2023-04-24T00:21:15;2.17;;;1.23;;
69594;SDS011;56800;52.142;5.364;2023-04-24T00:23:45;2.63;;;1.20;;
69594;SDS011;56800;52.142;5.364;2023-04-24T00:26:12;2.55;;;1.17;;
69594;SDS011;56800;52.142;5.364;2023-04-24T00:28:38;3.35;;;1.80;;
69594;SDS011;56800;52.142;5.364;2023-04-24T00:31:05;2.38;;;1.70;;
69594;SDS011;56800;52.142;5.364;2023-04-24T00:33:32;2.63;;;1.90;;
69594;SDS011;56800;52.142;5.364;2023-04-24T00:35:58;3.20;;;1.80;;
69594;SDS011;56800;52.142;5.364;2023-04-24T00:38:25;3.58;;;1.60;;
69594;SDS011;56800;52.142;5.364;2023-04-24T00:40:52;2.50;;;1.70;;
69594;SDS011;56800;52.142;5.364;2023-04-24T00:43:20;2.15;;;1.50;;
69594;SDS011;56800;52.142;5.364;2023-04-24T00:45:47;5.03;;;1.85;;
69594;SDS011;56800;52.142;5.364;2023-04-24T00:48:14;2.40;;;1.53;;
69594;SDS011;56800;52.142;5.364;2023-04-24T00:50:42;4.18;;;1.77;;
69594;SDS011;56800;52.142;5.364;2023-04-24T00:53:09;5.40;;;1.60;;
69594;SDS011;56800;52.142;5.364;2023-04-24T00:55:36;3.47;;;1.67;;
69594;SDS011;56800;52.142;5.364;2023-04-24T00:58:03;4.00;;;1.95;;
69594;SDS011;56800;52.142;5.364;2023-04-24T01:00:30;3.53;;;2.23;;
69594;SDS011;56800;52.142;5.364;2023-04-24T01:02:58;2.80;;;2.00;;
69594;SDS011;56800;52.142;5.364;2023-04-24T01:05:26;3.20;;;2.00;;
69594;SDS011;56800;52.142;5.364;2023-04-24T01:07:53;3.13;;;2.20;;
69594;SDS011;56800;52.142;5.364;2023-04-24T01:10:20;3.22;;;2.40;;
69594;SDS011;56800;52.142;5.364;2023-04-24T01:12:47;10.93;;;2.80;;
69594;SDS011;56800;52.142;5.364;2023-04-24T01:15:13;4.55;;;2.33;;
69594;SDS011;56800;52.142;5.364;2023-04-24T01:17:40;3.10;;;2.50;;
69594;SDS011;56800;52.142;5.364;2023-04-24T01:20:07;4.22;;;2.92;;
69594;SDS011;56800;52.142;5.364;2023-04-24T01:22:34;5.63;;;3.72;;
69594;SDS011;56800;52.142;5.364;2023-04-24T01:25:02;4.40;;;3.53;;
69594;SDS011;56800;52.142;5.364;2023-04-24T01:27:29;7.03;;;3.33;;
69594;SDS011;56800;52.142;5.364;2023-04-24T01:29:56;4.90;;;3.72;;
69594;SDS011;56800;52.142;5.364;2023-04-24T01:32:23;6.18;;;3.80;;
69594;SDS011;56800;52.142;5.364;2023-04-24T01:34:51;5.38;;;4.10;;
69594;SDS011;56800;52.142;5.364;2023-04-24T01:37:18;7.53;;;4.40;;
69594;SDS011;56800;52.142;5.364;2023-04-24T01:39:45;8.10;;;4.65;;
69594;SDS011;56800;52.142;5.364;2023-04-24T01:42:12;5.68;;;3.58;;
69594;SDS011;56800;52.142;5.364;2023-04-24T01:44:39;5.00;;;3.83;;
69594;SDS011;56800;52.142;5.364;2023-04-24T01:47:06;7.00;;;4.00;;
69594;SDS011;56800;52.142;5.364;2023-04-24T01:49:33;6.87;;;3.60;;
69594;SDS011;56800;52.142;5.364;2023-04-24T01:52:00;5.05;;;3.80;;
69594;SDS011;56800;52.142;5.364;2023-04-24T01:54:27;6.15;;;4.05;;
69594;SDS011;56800;52.142;5.364;2023-04-24T01:56:53;7.35;;;4.22;;
69594;SDS011;56800;52.142;5.364;2023-04-24T01:59:20;5.93;;;4.43;;
69594;SDS011;56800;52.142;5.364;2023-04-24T02:01:49;6.20;;;3.63;;
69594;SDS011;56800;52.142;5.364;2023-04-24T02:04:16;6.85;;;4.18;;
69594;SDS011;56800;52.142;5.364;2023-04-24T02:06:42;5.50;;;3.95;;
69594;SDS011;56800;52.142;5.364;2023-04-24T02:09:09;7.35;;;4.03;;
69594;SDS011;56800;52.142;5.364;2023-04-24T02:11:36;6.65;;;4.13;;
69594;SDS011;56800;52.142;5.364;2023-04-24T02:14:03;8.07;;;4.37;;
69594;SDS011;56800;52.142;5.364;2023-04-24T02:16:30;7.18;;;4.38;;
69594;SDS011;56800;52.142;5.364;2023-04-24T02:18:58;6.55;;;3.97;;
69594;SDS011;56800;52.142;5.364;2023-04-24T02:21:25;6.40;;;4.10;;
69594;SDS011;56800;52.142;5.364;2023-04-24T02:23:53;6.18;;;4.50;;
69594;SDS011;56800;52.142;5.364;2023-04-24T02:26:20;7.80;;;3.60;;
69594;SDS011;56800;52.142;5.364;2023-04-24T02:28:47;4.40;;;3.28;;
69594;SDS011;56800;52.142;5.364;2023-04-24T02:31:13;7.95;;;3.17;;
69594;SDS011;56800;52.142;5.364;2023-04-24T02:33:40;5.80;;;3.45;;
69594;SDS011;56800;52.142;5.364;2023-04-24T02:36:07;4.68;;;3.10;;
69594;SDS011;56800;52.142;5.364;2023-04-24T02:38:34;4.77;;;3.27;;
69594;SDS011;56800;52.142;5.364;2023-04-24T02:41:00;4.43;;;2.80;;
69594;SDS011;56800;52.142;5.364;2023-04-24T02:43:28;5.53;;;3.20;;
69594;SDS011;56800;52.142;5.364;2023-04-24T02:45:54;6.80;;;3.38;;
69594;SDS011;56800;52.142;5.364;2023-04-24T02:48:21;7.55;;;3.35;;
69594;SDS011;56800;52.142;5.364;2023-04-24T02:50:48;7.00;;;4.00;;
69594;SDS011;56800;52.142;5.364;2023-04-24T02:53:14;6.15;;;3.88;;
69594;SDS011;56800;52.142;5.364;2023-04-24T02:55:41;4.75;;;3.42;;
69594;SDS011;56800;52.142;5.364;2023-04-24T02:58:08;5.18;;;3.85;;
69594;SDS011;56800;52.142;5.364;2023-04-24T03:00:34;6.13;;;4.30;;
69594;SDS011;56800;52.142;5.364;2023-04-24T03:03:01;6.33;;;4.07;;
69594;SDS011;56800;52.142;5.364;2023-04-24T03:05:29;7.35;;;4.50;;
69594;SDS011;56800;52.142;5.364;2023-04-24T03:07:57;8.63;;;4.72;;
69594;SDS011;56800;52.142;5.364;2023-04-24T03:10:23;5.95;;;4.50;;
69594;SDS011;56800;52.142;5.364;2023-04-24T03:12:50;6.45;;;4.68;;
69594;SDS011;56800;52.142;5.364;2023-04-24T03:15:17;6.63;;;4.80;;
69594;SDS011;56800;52.142;5.364;2023-04-24T03:17:44;6.05;;;4.60;;
69594;SDS011;56800;52.142;5.364;2023-04-24T03:20:12;8.80;;;4.35;;
69594;SDS011;56800;52.142;5.364;2023-04-24T03:22:39;7.65;;;4.50;;
69594;SDS011;56800;52.142;5.364;2023-04-24T03:25:06;5.43;;;3.97;;
69594;SDS011;56800;52.142;5.364;2023-04-24T03:27:34;6.10;;;4.00;;
69594;SDS011;56800;52.142;5.364;2023-04-24T03:30:01;3.97;;;2.83;;
69594;SDS011;56800;52.142;5.364;2023-04-24T03:32:28;6.70;;;3.40;;
69594;SDS011;56800;52.142;5.364;2023-04-24T03:34:55;4.57;;;2.85;;
69594;SDS011;56800;52.142;5.364;2023-04-24T03:37:21;4.78;;;3.20;;
69594;SDS011;56800;52.142;5.364;2023-04-24T03:39:48;5.03;;;2.87;;
69594;SDS011;56800;52.142;5.364;2023-04-24T03:42:15;5.43;;;3.33;;
69594;SDS011;56800;52.142;5.364;2023-04-24T03:44:41;5.55;;;4.10;;
69594;SDS011;56800;52.142;5.364;2023-04-24T03:47:08;5.50;;;3.97;;
69594;SDS011;56800;52.142;5.364;2023-04-24T03:49:35;8.98;;;4.50;;
69594;SDS011;56800;52.142;5.364;2023-04-24T03:52:02;5.67;;;4.17;;
69594;SDS011;56800;52.142;5.364;2023-04-24T03:54:28;8.13;;;4.00;;
69594;SDS011;56800;52.142;5.364;2023-04-24T03:56:55;5.50;;;3.15;;
69594;SDS011;56800;52.142;5.364;2023-04-24T03:59:22;5.57;;;3.17;;
69594;SDS011;56800;52.142;5.364;2023-04-24T04:01:48;6.20;;;2.92;;
69594;SDS011;56800;52.142;5.364;2023-04-24T04:04:15;4.63;;;3.30;;
69594;SDS011;56800;52.142;5.364;2023-04-24T04:06:42;3.60;;;2.55;;
69594;SDS011;56800;52.142;5.364;2023-04-24T04:09:10;3.60;;;2.60;;
69594;SDS011;56800;52.142;5.364;2023-04-24T04:11:37;3.78;;;2.05;;
69594;SDS011;56800;52.142;5.364;2023-04-24T04:14:03;3.28;;;2.10;;
69594;SDS011;56800;52.142;5.364;2023-04-24T04:16:31;2.83;;;2.03;;
69594;SDS011;56800;52.142;5.364;2023-04-24T04:18:58;3.08;;;2.00;;
69594;SDS011;56800;52.142;5.364;2023-04-24T04:21:25;3.53;;;2.03;;
69594;SDS011;56800;52.142;5.364;2023-04-24T04:23:53;3.35;;;2.00;;
69594;SDS011;56800;52.142;5.364;2023-04-24T04:26:19;2.65;;;1.98;;
69594;SDS011;56800;52.142;5.364;2023-04-24T04:28:47;6.13;;;2.33;;
69594;SDS011;56800;52.142;5.364;2023-04-24T04:31:15;3.10;;;2.10;;
69594;SDS011;56800;52.142;5.364;2023-04-24T04:33:41;3.50;;;2.10;;
69594;SDS011;56800;52.142;5.364;2023-04-24T04:36:08;7.85;;;2.40;;
69594;SDS011;56800;52.142;5.364;2023-04-24T04:38:35;2.95;;;1.95;;
69594;SDS011;56800;52.142;5.364;2023-04-24T04:41:03;5.40;;;2.33;;
69594;SDS011;56800;52.142;5.364;2023-04-24T04:43:30;4.68;;;2.35;;
69594;SDS011;56800;52.142;5.364;2023-04-24T04:45:57;3.60;;;2.60;;
69594;SDS011;56800;52.142;5.364;2023-04-24T04:48:24;5.32;;;2.83;;
69594;SDS011;56800;52.142;5.364;2023-04-24T04:50:50;5.47;;;3.08;;
69594;SDS011;56800;52.142;5.364;2023-04-24T04:53:17;6.60;;;3.37;;
69594;SDS011;56800;52.142;5.364;2023-04-24T04:55:44;7.32;;;3.47;;
69594;SDS011;56800;52.142;5.364;2023-04-24T04:58:12;6.43;;;4.22;;
69594;SDS011;56800;52.142;5.364;2023-04-24T05:00:39;8.75;;;4.32;;
69594;SDS011;56800;52.142;5.364;2023-04-24T05:03:05;5.85;;;4.50;;
69594;SDS011;56800;52.142;5.364;2023-04-24T05:05:46;7.77;;;4.60;;
69594;SDS011;56800;52.142;5.364;2023-04-24T05:08:13;7.03;;;4.55;;
69594;SDS011;56800;52.142;5.364;2023-04-24T05:10:43;10.10;;;5.28;;
69594;SDS011;56800;52.142;5.364;2023-04-24T05:13:09;7.55;;;4.90;;
69594;SDS011;56800;52.142;5.364;2023-04-24T05:15:39;8.35;;;4.95;;
69594;SDS011;56800;52.142;5.364;2023-04-24T05:18:05;8.13;;;4.90;;
69594;SDS011;56800;52.142;5.364;2023-04-24T05:20:32;6.75;;;4.40;;
69594;SDS011;56800;52.142;5.364;2023-04-24T05:22:59;7.40;;;4.55;;
69594;SDS011;56800;52.142;5.364;2023-04-24T05:25:26;9.18;;;4.43;;
69594;SDS011;56800;52.142;5.364;2023-04-24T05:27:53;8.13;;;4.40;;
69594;SDS011;56800;52.142;5.364;2023-04-24T05:30:20;7.87;;;4.33;;
69594;SDS011;56800;52.142;5.364;2023-04-24T05:32:46;6.88;;;4.53;;
69594;SDS011;56800;52.142;5.364;2023-04-24T05:35:13;6.97;;;4.50;;
69594;SDS011;56800;52.142;5.364;2023-04-24T05:37:40;6.28;;;4.30;;
69594;SDS011;56800;52.142;5.364;2023-04-24T05:40:07;7.32;;;4.05;;
69594;SDS011;56800;52.142;5.364;2023-04-24T05:42:35;11.73;;;3.87;;
69594;SDS011;56800;52.142;5.364;2023-04-24T05:45:02;13.25;;;4.13;;
69594;SDS011;56800;52.142;5.364;2023-04-24T05:47:29;5.05;;;3.00;;
69594;SDS011;56800;52.142;5.364;2023-04-24T05:49:56;10.73;;;2.65;;
69594;SDS011;56800;52.142;5.364;2023-04-24T05:52:22;4.95;;;2.72;;
69594;SDS011;56800;52.142;5.364;2023-04-24T05:54:49;9.33;;;2.90;;
69594;SDS011;56800;52.142;5.364;2023-04-24T05:57:16;5.93;;;2.80;;
69594;SDS011;56800;52.142;5.364;2023-04-24T05:59:43;4.82;;;2.50;;
69594;SDS011;56800;52.142;5.364;2023-04-24T06:02:10;9.82;;;2.20;;
69594;SDS011;56800;52.142;5.364;2023-04-24T06:04:36;3.90;;;2.70;;
69594;SDS011;56800;52.142;5.364;2023-04-24T06:07:04;6.83;;;2.27;;
69594;SDS011;56800;52.142;5.364;2023-04-24T06:09:30;4.13;;;2.13;;
69594;SDS011;56800;52.142;5.364;2023-04-24T06:11:57;3.50;;;2.00;;
69594;SDS011;56800;52.142;5.364;2023-04-24T06:14:26;2.60;;;1.55;;
69594;SDS011;56800;52.142;5.364;2023-04-24T06:16:52;8.52;;;1.90;;
69594;SDS011;56800;52.142;5.364;2023-04-24T06:19:19;2.80;;;1.20;;
69594;SDS011;56800;52.142;5.364;2023-04-24T06:21:46;7.60;;;1.10;;
69594;SDS011;56800;52.142;5.364;2023-04-24T06:24:13;6.43;;;1.20;;
69594;SDS011;56800;52.142;5.364;2023-04-24T06:26:41;6.93;;;1.20;;
69594;SDS011;56800;52.142;5.364;2023-04-24T06:29:08;5.50;;;1.25;;
69594;SDS011;56800;52.142;5.364;2023-04-24T06:31:35;12.70;;;1.40;;
69594;SDS011;56800;52.142;5.364;2023-04-24T06:34:03;6.65;;;1.40;;
69594;SDS011;56800;52.142;5.364;2023-04-24T06:36:30;6.07;;;2.38;;
69594;SDS011;56800;52.142;5.364;2023-04-24T06:38:58;9.82;;;3.50;;
69594;SDS011;56800;52.142;5.364;2023-04-24T06:41:28;8.95;;;3.60;;
69594;SDS011;56800;52.142;5.364;2023-04-24T06:43:55;9.33;;;5.47;;
69594;SDS011;56800;52.142;5.364;2023-04-24T06:46:22;14.48;;;6.10;;
69594;SDS011;56800;52.142;5.364;2023-04-24T06:48:55;11.23;;;6.35;;
69594;SDS011;56800;52.142;5.364;2023-04-24T06:51:23;15.73;;;7.03;;
69594;SDS011;56800;52.142;5.364;2023-04-24T06:53:55;17.08;;;7.20;;
69594;SDS011;56800;52.142;5.364;2023-04-24T06:56:24;17.57;;;7.13;;
69594;SDS011;56800;52.142;5.364;2023-04-24T06:58:53;14.60;;;7.35;;
69594;SDS011;56800;52.142;5.364;2023-04-24T07:01:20;16.70;;;7.50;;
69594;SDS011;56800;52.142;5.364;2023-04-24T07:03:47;14.00;;;7.10;;
69594;SDS011;56800;52.142;5.364;2023-04-24T07:06:13;16.50;;;7.90;;
69594;SDS011;56800;52.142;5.364;2023-04-24T07:08:42;15.93;;;7.47;;
69594;SDS011;56800;52.142;5.364;2023-04-24T07:11:10;18.60;;;6.70;;
69594;SDS011;56800;52.142;5.364;2023-04-24T07:13:36;17.67;;;7.10;;
69594;SDS011;56800;52.142;5.364;2023-04-24T07:16:08;11.75;;;6.60;;
69594;SDS011;56800;52.142;5.364;2023-04-24T07:18:35;19.15;;;7.22;;
69594;SDS011;56800;52.142;5.364;2023-04-24T07:21:04;18.80;;;7.40;;
69594;SDS011;56800;52.142;5.364;2023-04-24T07:23:32;20.60;;;7.32;;
69594;SDS011;56800;52.142;5.364;2023-04-24T07:25:59;22.77;;;7.72;;
69594;SDS011;56800;52.142;5.364;2023-04-24T07:28:28;17.23;;;6.97;;
69594;SDS011;56800;52.142;5.364;2023-04-24T07:30:58;20.50;;;7.03;;
69594;SDS011;56800;52.142;5.364;2023-04-24T07:33:26;14.57;;;6.83;;
69594;SDS011;56800;52.142;5.364;2023-04-24T07:35:54;17.40;;;7.00;;
69594;SDS011;56800;52.142;5.364;2023-04-24T07:38:21;18.08;;;6.97;;
69594;SDS011;56800;52.142;5.364;2023-04-24T07:40:50;19.02;;;7.07;;
69594;SDS011;56800;52.142;5.364;2023-04-24T07:43:17;18.58;;;7.45;;
69594;SDS011;56800;52.142;5.364;2023-04-24T07:45:46;18.33;;;6.07;;
69594;SDS011;56800;52.142;5.364;2023-04-24T07:48:13;14.43;;;6.63;;
69594;SDS011;56800;52.142;5.364;2023-04-24T07:50:42;19.25;;;6.93;;
69594;SDS011;56800;52.142;5.364;2023-04-24T07:53:09;12.75;;;6.20;;
69594;SDS011;56800;52.142;5.364;2023-04-24T07:55:36;20.73;;;6.57;;
69594;SDS011;56800;52.142;5.364;2023-04-24T07:58:03;14.70;;;6.67;;
69594;SDS011;56800;52.142;5.364;2023-04-24T08:00:30;19.58;;;7.30;;
69594;SDS011;56800;52.142;5.364;2023-04-24T08:02:57;13.65;;;6.57;;
69594;SDS011;56800;52.142;5.364;2023-04-24T08:05:24;20.65;;;7.32;;
69594;SDS011;56800;52.142;5.364;2023-04-24T08:07:53;14.95;;;6.57;;
69594;SDS011;56800;52.142;5.364;2023-04-24T08:10:23;21.37;;;6.30;;
69594;SDS011;56800;52.142;5.364;2023-04-24T08:12:53;18.38;;;5.78;;
69594;SDS011;56800;52.142;5.364;2023-04-24T08:15:21;12.20;;;5.32;;
69594;SDS011;56800;52.142;5.364;2023-04-24T08:17:48;15.68;;;5.28;;
69594;SDS011;56800;52.142;5.364;2023-04-24T08:20:14;17.63;;;5.10;;
69594;SDS011;56800;52.142;5.364;2023-04-24T08:22:41;10.90;;;3.60;;
69594;SDS011;56800;52.142;5.364;2023-04-24T08:25:10;15.10;;;3.40;;
69594;SDS011;56800;52.142;5.364;2023-04-24T08:27:37;10.63;;;2.75;;
69594;SDS011;56800;52.142;5.364;2023-04-24T08:30:05;17.02;;;3.67;;
69594;SDS011;56800;52.142;5.364;2023-04-24T08:32:33;20.10;;;3.60;;
69594;SDS011;56800;52.142;5.364;2023-04-24T08:35:00;20.47;;;3.97;;
69594;SDS011;56800;52.142;5.364;2023-04-24T08:37:27;20.10;;;3.50;;
69594;SDS011;56800;52.142;5.364;2023-04-24T08:39:54;16.85;;;3.65;;
69594;SDS011;56800;52.142;5.364;2023-04-24T08:42:21;20.85;;;3.05;;
69594;SDS011;56800;52.142;5.364;2023-04-24T08:44:49;16.60;;;2.83;;
69594;SDS011;56800;52.142;5.364;2023-04-24T08:47:16;12.33;;;2.47;;
69594;SDS011;56800;52.142;5.364;2023-04-24T08:49:44;15.52;;;2.67;;
69594;SDS011;56800;52.142;5.364;2023-04-24T08:52:12;15.02;;;2.97;;
69594;SDS011;56800;52.142;5.364;2023-04-24T08:54:39;15.98;;;2.60;;
69594;SDS011;56800;52.142;5.364;2023-04-24T08:57:07;12.77;;;2.53;;
69594;SDS011;56800;52.142;5.364;2023-04-24T08:59:37;17.77;;;2.60;;
69594;SDS011;56800;52.142;5.364;2023-04-24T09:02:04;16.08;;;2.92;;
69594;SDS011;56800;52.142;5.364;2023-04-24T09:04:33;13.15;;;2.35;;
69594;SDS011;56800;52.142;5.364;2023-04-24T09:07:01;13.68;;;2.40;;
69594;SDS011;56800;52.142;5.364;2023-04-24T09:09:30;11.57;;;2.10;;
69594;SDS011;56800;52.142;5.364;2023-04-24T09:11:58;18.57;;;2.47;;
69594;SDS011;56800;52.142;5.364;2023-04-24T09:14:27;14.05;;;2.22;;
69594;SDS011;56800;52.142;5.364;2023-04-24T09:16:54;12.30;;;2.50;;
69594;SDS011;56800;52.142;5.364;2023-04-24T09:19:21;15.80;;;2.78;;
69594;SDS011;56800;52.142;5.364;2023-04-24T09:21:48;11.35;;;2.80;;
69594;SDS011;56800;52.142;5.364;2023-04-24T09:24:16;15.40;;;2.97;;
69594;SDS011;56800;52.142;5.364;2023-04-24T09:26:49;13.80;;;2.58;;
69594;SDS011;56800;52.142;5.364;2023-04-24T09:29:23;15.80;;;3.35;;
69594;SDS011;56800;52.142;5.364;2023-04-24T09:31:50;12.35;;;2.42;;
69594;SDS011;56800;52.142;5.364;2023-04-24T09:34:24;12.95;;;2.38;;
69594;SDS011;56800;52.142;5.364;2023-04-24T09:36:52;15.73;;;2.80;;
69594;SDS011;56800;52.142;5.364;2023-04-24T09:39:21;14.27;;;2.72;;
69594;SDS011;56800;52.142;5.364;2023-04-24T09:41:54;12.02;;;2.75;;
69594;SDS011;56800;52.142;5.364;2023-04-24T09:44:27;12.80;;;2.28;;
69594;SDS011;56800;52.142;5.364;2023-04-24T09:46:55;12.30;;;3.20;;
69594;SDS011;56800;52.142;5.364;2023-04-24T09:51:51;12.07;;;2.13;;
69594;SDS011;56800;52.142;5.364;2023-04-24T09:54:19;9.20;;;1.95;;
69594;SDS011;56800;52.142;5.364;2023-04-24T09:56:50;13.13;;;2.10;;
69594;SDS011;56800;52.142;5.364;2023-04-24T09:59:17;9.80;;;2.05;;
69594;SDS011;56800;52.142;5.364;2023-04-24T10:01:48;10.73;;;2.40;;
69594;SDS011;56800;52.142;5.364;2023-04-24T10:04:21;10.68;;;2.08;;
69594;SDS011;56800;52.142;5.364;2023-04-24T10:06:51;12.68;;;2.22;;
69594;SDS011;56800;52.142;5.364;2023-04-24T10:09:21;9.90;;;2.60;;
69594;SDS011;56800;52.142;5.364;2023-04-24T10:11:53;11.07;;;2.22;;
69594;SDS011;56800;52.142;5.364;2023-04-24T10:14:21;8.07;;;1.70;;
69594;SDS011;56800;52.142;5.364;2023-04-24T10:16:49;10.40;;;1.75;;
69594;SDS011;56800;52.142;5.364;2023-04-24T10:19:17;8.10;;;2.08;;
69594;SDS011;56800;52.142;5.364;2023-04-24T10:21:46;9.27;;;2.45;;
69594;SDS011;56800;52.142;5.364;2023-04-24T10:24:14;7.13;;;1.60;;
69594;SDS011;56800;52.142;5.364;2023-04-24T10:26:43;7.90;;;1.43;;
69594;SDS011;56800;52.142;5.364;2023-04-24T10:29:12;5.57;;;1.30;;
69594;SDS011;56800;52.142;5.364;2023-04-24T10:31:39;6.75;;;1.80;;
69594;SDS011;56800;52.142;5.364;2023-04-24T10:34:07;7.47;;;1.40;;
69594;SDS011;56800;52.142;5.364;2023-04-24T10:36:36;10.82;;;1.33;;
69594;SDS011;56800;52.142;5.364;2023-04-24T10:39:08;4.10;;;1.33;;
69594;SDS011;56800;52.142;5.364;2023-04-24T10:41:37;7.22;;;1.30;;
69594;SDS011;56800;52.142;5.364;2023-04-24T10:44:08;8.63;;;1.33;;
69594;SDS011;56800;52.142;5.364;2023-04-24T10:46:37;7.28;;;1.02;;
69594;SDS011;56800;52.142;5.364;2023-04-24T10:49:08;6.93;;;1.73;;
69594;SDS011;56800;52.142;5.364;2023-04-24T10:51:48;4.97;;;0.83;;
69594;SDS011;56800;52.142;5.364;2023-04-24T10:59:45;4.40;;;1.08;;
69594;SDS011;56800;52.142;5.364;2023-04-24T11:02:16;6.55;;;1.60;;
69594;SDS011;56800;52.142;5.364;2023-04-24T11:04:44;7.23;;;1.13;;
69594;SDS011;56800;52.142;5.364;2023-04-24T11:07:12;7.90;;;1.17;;
69594;SDS011;56800;52.142;5.364;2023-04-24T11:09:39;8.52;;;1.20;;
69594;SDS011;56800;52.142;5.364;2023-04-24T11:12:10;6.57;;;1.25;;
69594;SDS011;56800;52.142;5.364;2023-04-24T11:15:20;7.00;;;1.60;;
69594;SDS011;56800;52.142;5.364;2023-04-24T11:20:06;7.88;;;1.48;;
69594;SDS011;56800;52.142;5.364;2023-04-24T11:22:53;9.30;;;1.30;;
69594;SDS011;56800;52.142;5.364;2023-04-24T11:25:21;4.05;;;1.02;;
69594;SDS011;56800;52.142;5.364;2023-04-24T11:27:49;8.50;;;1.40;;
69594;SDS011;56800;52.142;5.364;2023-04-24T11:30:17;8.70;;;1.17;;
69594;SDS011;56800;52.142;5.364;2023-04-24T11:32:50;6.68;;;1.30;;
69594;SDS011;56800;52.142;5.364;2023-04-24T11:35:19;5.20;;;1.50;;
69594;SDS011;56800;52.142;5.364;2023-04-24T11:37:50;6.78;;;1.42;;
69594;SDS011;56800;52.142;5.364;2023-04-24T11:40:22;8.98;;;1.65;;
69594;SDS011;56800;52.142;5.364;2023-04-24T11:42:50;3.13;;;1.00;;
69594;SDS011;56800;52.142;5.364;2023-04-24T11:45:22;4.75;;;1.10;;
69594;SDS011;56800;52.142;5.364;2023-04-24T11:47:50;7.60;;;0.90;;
69594;SDS011;56800;52.142;5.364;2023-04-24T11:50:18;5.78;;;0.85;;
69594;SDS011;56800;52.142;5.364;2023-04-24T11:52:46;3.17;;;0.93;;
69594;SDS011;56800;52.142;5.364;2023-04-24T11:57:59;3.60;;;0.90;;
69594;SDS011;56800;52.142;5.364;2023-04-24T12:00:30;5.95;;;0.75;;
69594;SDS011;56800;52.142;5.364;2023-04-24T12:03:07;3.55;;;0.93;;
69594;SDS011;56800;52.142;5.364;2023-04-24T12:05:36;3.03;;;1.20;;
69594;SDS011;56800;52.142;5.364;2023-04-24T12:08:03;11.00;;;0.90;;
69594;SDS011;56800;52.142;5.364;2023-04-24T12:10:31;5.90;;;1.00;;
69594;SDS011;56800;52.142;5.364;2023-04-24T12:12:59;5.35;;;1.10;;
69594;SDS011;56800;52.142;5.364;2023-04-24T12:15:26;2.90;;;0.95;;
69594;SDS011;56800;52.142;5.364;2023-04-24T12:17:54;6.07;;;1.10;;
69594;SDS011;56800;52.142;5.364;2023-04-24T12:20:26;7.10;;;1.03;;
69594;SDS011;56800;52.142;5.364;2023-04-24T12:22:57;5.95;;;1.40;;
69594;SDS011;56800;52.142;5.364;2023-04-24T12:25:26;10.98;;;1.55;;
69594;SDS011;56800;52.142;5.364;2023-04-24T12:30:32;9.07;;;1.40;;
69594;SDS011;56800;52.142;5.364;2023-04-24T12:33:06;6.83;;;1.50;;
69594;SDS011;56800;52.142;5.364;2023-04-24T12:35:33;9.38;;;1.50;;
69594;SDS011;56800;52.142;5.364;2023-04-24T12:38:05;6.60;;;1.55;;
69594;SDS011;56800;52.142;5.364;2023-04-24T12:40:33;6.15;;;1.48;;
69594;SDS011;56800;52.142;5.364;2023-04-24T12:43:00;11.98;;;2.65;;
69594;SDS011;56800;52.142;5.364;2023-04-24T12:45:27;7.57;;;1.77;;
69594;SDS011;56800;52.142;5.364;2023-04-24T12:47:54;9.07;;;1.65;;
69594;SDS011;56800;52.142;5.364;2023-04-24T12:50:20;6.32;;;1.55;;
69594;SDS011;56800;52.142;5.364;2023-04-24T12:52:47;7.47;;;1.35;;
69594;SDS011;56800;52.142;5.364;2023-04-24T12:55:14;8.35;;;1.80;;
69594;SDS011;56800;52.142;5.364;2023-04-24T12:57:40;8.70;;;1.87;;
69594;SDS011;56800;52.142;5.364;2023-04-24T13:00:07;9.75;;;1.80;;
69594;SDS011;56800;52.142;5.364;2023-04-24T13:02:35;9.70;;;1.90;;
69594;SDS011;56800;52.142;5.364;2023-04-24T13:05:02;10.98;;;2.30;;
69594;SDS011;56800;52.142;5.364;2023-04-24T13:07:29;12.57;;;2.22;;
69594;SDS011;56800;52.142;5.364;2023-04-24T13:09:56;13.40;;;2.40;;
69594;SDS011;56800;52.142;5.364;2023-04-24T13:12:23;10.80;;;2.38;;
69594;SDS011;56800;52.142;5.364;2023-04-24T13:14:51;14.55;;;2.45;;
69594;SDS011;56800;52.142;5.364;2023-04-24T13:17:19;11.10;;;1.92;;
69594;SDS011;56800;52.142;5.364;2023-04-24T13:19:46;14.82;;;2.40;;
69594;SDS011;56800;52.142;5.364;2023-04-24T13:22:12;11.30;;;2.27;;
69594;SDS011;56800;52.142;5.364;2023-04-24T13:24:39;15.80;;;2.67;;
69594;SDS011;56800;52.142;5.364;2023-04-24T13:27:07;11.88;;;2.50;;
69594;SDS011;56800;52.142;5.364;2023-04-24T13:29:35;12.95;;;2.60;;
69594;SDS011;56800;52.142;5.364;2023-04-24T13:32:03;14.32;;;3.28;;
69594;SDS011;56800;52.142;5.364;2023-04-24T13:34:30;10.90;;;2.50;;
69594;SDS011;56800;52.142;5.364;2023-04-24T13:36:57;13.43;;;2.38;;
69594;SDS011;56800;52.142;5.364;2023-04-24T13:39:25;12.45;;;2.17;;
69594;SDS011;56800;52.142;5.364;2023-04-24T13:41:52;14.73;;;3.20;;
69594;SDS011;56800;52.142;5.364;2023-04-24T13:44:20;13.10;;;2.47;;
69594;SDS011;56800;52.142;5.364;2023-04-24T13:46:49;11.67;;;2.60;;
69594;SDS011;56800;52.142;5.364;2023-04-24T13:49:20;15.05;;;2.30;;
69594;SDS011;56800;52.142;5.364;2023-04-24T13:51:47;11.80;;;2.65;;
69594;SDS011;56800;52.142;5.364;2023-04-24T13:54:14;12.32;;;2.40;;
69594;SDS011;56800;52.142;5.364;2023-04-24T13:56:41;11.85;;;2.58;;
69594;SDS011;56800;52.142;5.364;2023-04-24T13:59:08;10.07;;;2.27;;
69594;SDS011;56800;52.142;5.364;2023-04-24T14:01:35;12.27;;;2.58;;
69594;SDS011;56800;52.142;5.364;2023-04-24T14:04:02;11.30;;;2.30;;
69594;SDS011;56800;52.142;5.364;2023-04-24T14:06:29;8.85;;;2.30;;
69594;SDS011;56800;52.142;5.364;2023-04-24T14:08:55;16.63;;;2.83;;
69594;SDS011;56800;52.142;5.364;2023-04-24T14:11:22;19.50;;;2.47;;
69594;SDS011;56800;52.142;5.364;2023-04-24T14:13:49;12.20;;;2.22;;
69594;SDS011;56800;52.142;5.364;2023-04-24T14:16:16;12.98;;;2.25;;
69594;SDS011;56800;52.142;5.364;2023-04-24T14:18:43;13.45;;;2.60;;
69594;SDS011;56800;52.142;5.364;2023-04-24T14:21:09;13.57;;;2.85;;
69594;SDS011;56800;52.142;5.364;2023-04-24T14:23:36;13.67;;;3.10;;
69594;SDS011;56800;52.142;5.364;2023-04-24T14:26:03;12.48;;;2.47;;
69594;SDS011;56800;52.142;5.364;2023-04-24T14:28:30;14.55;;;2.97;;
69594;SDS011;56800;52.142;5.364;2023-04-24T14:30:56;14.80;;;2.92;;
69594;SDS011;56800;52.142;5.364;2023-04-24T14:33:23;10.75;;;2.58;;
69594;SDS011;56800;52.142;5.364;2023-04-24T14:35:50;18.03;;;3.50;;
69594;SDS011;56800;52.142;5.364;2023-04-24T14:38:17;15.15;;;2.80;;
69594;SDS011;56800;52.142;5.364;2023-04-24T14:40:44;16.10;;;3.50;;
69594;SDS011;56800;52.142;5.364;2023-04-24T14:43:31;12.70;;;2.80;;
69594;SDS011;56800;52.142;5.364;2023-04-24T14:45:58;12.07;;;3.10;;
69594;SDS011;56800;52.142;5.364;2023-04-24T14:48:26;12.90;;;2.63;;
69594;SDS011;56800;52.142;5.364;2023-04-24T14:50:53;10.40;;;2.45;;
69594;SDS011;56800;52.142;5.364;2023-04-24T14:53:19;13.10;;;3.15;;
69594;SDS011;56800;52.142;5.364;2023-04-24T14:55:46;12.93;;;2.67;;
69594;SDS011;56800;52.142;5.364;2023-04-24T14:58:13;16.67;;;3.15;;
69594;SDS011;56800;52.142;5.364;2023-04-24T15:00:40;14.53;;;2.63;;
69594;SDS011;56800;52.142;5.364;2023-04-24T15:03:07;17.77;;;3.40;;